createdAt,value
2022-11-21T00:01:16.840Z,64.40
2022-11-21T00:03:43.694Z,66.80
2022-11-21T00:06:10.388Z,66.70
2022-11-21T00:08:37.016Z,64.80
2022-11-21T00:11:03.729Z,65.90
2022-11-21T00:13:30.414Z,67.60
2022-11-21T00:15:57.084Z,68.00
2022-11-21T00:18:23.720Z,67.60
2022-11-21T00:20:50.380Z,69.20
2022-11-21T00:23:17.069Z,68.90
2022-11-21T00:25:43.766Z,69.90
2022-11-21T00:28:10.398Z,69.40
2022-11-21T00:30:37.079Z,71.40
2022-11-21T00:33:03.839Z,70.20
2022-11-21T00:35:31.394Z,70.00
2022-11-21T00:37:58.006Z,70.10
2022-11-21T00:40:24.682Z,71.20
2022-11-21T00:42:51.306Z,70.40
2022-11-21T00:45:23.846Z,70.00
2022-11-21T00:47:51.052Z,68.90
2022-11-21T00:50:17.838Z,70.40
2022-11-21T00:52:44.568Z,72.60
2022-11-21T00:55:11.204Z,71.00
2022-11-21T00:57:37.879Z,71.80
2022-11-21T01:00:05.896Z,72.70
2022-11-21T01:02:32.768Z,71.90
2022-11-21T01:04:59.410Z,72.90
2022-11-21T01:07:26.093Z,71.90
2022-11-21T01:09:52.770Z,72.10
2022-11-21T01:12:19.455Z,71.20
2022-11-21T01:14:46.154Z,70.90
2022-11-21T01:17:12.791Z,68.30
2022-11-21T01:19:39.453Z,68.20
2022-11-21T01:22:06.087Z,66.10
2022-11-21T01:24:32.683Z,65.50
2022-11-21T01:26:59.299Z,68.10
2022-11-21T01:29:26.238Z,67.90
2022-11-21T01:31:52.828Z,68.10
2022-11-21T01:34:19.528Z,68.70
2022-11-21T01:36:46.131Z,67.90
2022-11-21T01:39:12.835Z,69.50
2022-11-21T01:41:44.475Z,69.50
2022-11-21T01:44:19.916Z,71.30
2022-11-21T01:46:47.367Z,70.00
2022-11-21T01:49:15.636Z,70.50
2022-11-21T01:51:50.075Z,71.30
2022-11-21T01:54:24.580Z,71.10
2022-11-21T01:56:56.718Z,73.00
2022-11-21T01:59:29.619Z,73.00
2022-11-21T02:01:58.184Z,74.30
2022-11-21T02:04:26.890Z,73.10
2022-11-21T02:06:53.670Z,73.70
2022-11-21T02:09:20.527Z,74.40
2022-11-21T02:11:50.870Z,72.20
2022-11-21T02:14:18.308Z,72.30
2022-11-21T02:16:45.127Z,72.00
2022-11-21T02:19:18.410Z,74.10
2022-11-21T02:21:55.799Z,74.50
2022-11-21T02:24:46.494Z,71.70
2022-11-21T02:27:13.303Z,73.00
2022-11-21T02:29:40.508Z,73.60
2022-11-21T02:32:07.138Z,73.20
2022-11-21T02:34:33.805Z,72.40
2022-11-21T02:37:01.925Z,72.10
2022-11-21T02:39:38.146Z,73.90
2022-11-21T02:42:11.097Z,74.20
2022-11-21T02:44:43.905Z,74.10
2022-11-21T02:47:10.529Z,72.50
2022-11-21T02:49:46.078Z,72.10
2022-11-21T02:52:12.716Z,71.80
2022-11-21T02:54:39.337Z,72.40
2022-11-21T02:57:05.980Z,72.60
2022-11-21T02:59:32.588Z,72.80
2022-11-21T03:02:00.952Z,72.50
2022-11-21T03:04:27.787Z,72.00
2022-11-21T03:06:54.773Z,72.10
2022-11-21T03:09:21.428Z,74.00
2022-11-21T03:11:48.042Z,72.20
2022-11-21T03:14:14.652Z,72.20
2022-11-21T03:16:41.368Z,72.40
2022-11-21T03:19:08.097Z,71.20
2022-11-21T03:21:34.693Z,71.20
2022-11-21T03:24:01.285Z,71.90
2022-11-21T03:26:28.494Z,72.00
2022-11-21T03:28:55.118Z,72.40
2022-11-21T03:31:21.768Z,73.00
2022-11-21T03:33:48.372Z,73.20
2022-11-21T03:36:14.981Z,73.50
2022-11-21T03:38:41.578Z,73.70
2022-11-21T03:41:28.164Z,73.60
2022-11-21T03:44:03.426Z,74.80
2022-11-21T03:46:31.992Z,74.00
2022-11-21T03:48:58.684Z,75.50
2022-11-21T03:51:25.800Z,73.70
2022-11-21T03:53:52.435Z,74.30
2022-11-21T03:56:19.276Z,74.40
2022-11-21T03:58:46.034Z,75.60
2022-11-21T04:01:15.928Z,75.90
2022-11-21T04:03:43.167Z,73.00
2022-11-21T04:06:11.152Z,73.10
2022-11-21T04:08:37.975Z,74.80
2022-11-21T04:11:04.823Z,73.60
2022-11-21T04:13:31.647Z,74.30
2022-11-21T04:15:58.275Z,73.30
2022-11-21T04:18:24.961Z,73.80
2022-11-21T04:21:03.549Z,72.80
2022-11-21T04:23:30.282Z,73.30
2022-11-21T04:25:57.042Z,74.90
2022-11-21T04:28:23.911Z,75.40
2022-11-21T04:30:54.481Z,73.40
2022-11-21T04:33:21.603Z,74.40
2022-11-21T04:35:48.284Z,74.20
2022-11-21T04:38:15.150Z,75.50
2022-11-21T04:40:44.581Z,74.00
2022-11-21T04:43:11.238Z,74.30
2022-11-21T04:45:37.866Z,74.00
2022-11-21T04:48:04.568Z,75.50
2022-11-21T04:50:31.264Z,75.00
2022-11-21T04:52:58.257Z,73.60
2022-11-21T04:55:29.036Z,75.10
2022-11-21T04:57:55.687Z,75.80
2022-11-21T05:00:24.361Z,77.20
2022-11-21T05:02:51.653Z,77.10
2022-11-21T05:05:18.330Z,76.50
2022-11-21T05:07:44.934Z,76.70
2022-11-21T05:10:11.717Z,75.80
2022-11-21T05:12:56.859Z,76.20
2022-11-21T05:15:24.979Z,75.50
2022-11-21T05:17:52.125Z,76.60
2022-11-21T05:20:19.048Z,77.90
2022-11-21T05:22:49.954Z,76.90
2022-11-21T05:25:16.764Z,77.70
2022-11-21T05:27:43.646Z,75.60
2022-11-21T05:30:11.468Z,75.40
2022-11-21T05:32:38.135Z,75.80
2022-11-21T05:35:05.178Z,76.50
2022-11-21T05:37:31.865Z,76.70
2022-11-21T05:39:58.648Z,74.90
2022-11-21T05:42:43.880Z,75.00
2022-11-21T05:45:10.771Z,76.10
2022-11-21T05:47:37.428Z,75.50
2022-11-21T05:50:04.804Z,76.20
2022-11-21T05:52:31.516Z,75.80
2022-11-21T05:54:58.133Z,75.30
2022-11-21T05:57:24.899Z,76.10
2022-11-21T05:59:51.504Z,76.80
2022-11-21T06:02:36.850Z,77.20
2022-11-21T06:05:03.625Z,76.70
2022-11-21T06:07:30.267Z,76.10
2022-11-21T06:09:57.038Z,76.10
2022-11-21T06:12:25.943Z,76.80
2022-11-21T06:14:52.689Z,76.70
2022-11-21T06:17:19.368Z,76.50
2022-11-21T06:19:46.110Z,75.40
2022-11-21T06:22:12.760Z,77.60
2022-11-21T06:24:39.414Z,75.90
2022-11-21T06:27:06.073Z,75.80
2022-11-21T06:29:32.760Z,76.10
2022-11-21T06:31:59.407Z,76.20
2022-11-21T06:34:27.268Z,76.10
2022-11-21T06:36:54.341Z,76.90
2022-11-21T06:39:21.023Z,77.40
2022-11-21T06:41:50.921Z,77.30
2022-11-21T06:44:18.595Z,77.00
2022-11-21T06:46:50.735Z,76.50
2022-11-21T06:49:17.761Z,76.20
2022-11-21T06:51:44.391Z,75.20
2022-11-21T06:54:15.214Z,73.80
2022-11-21T06:56:43.284Z,74.80
2022-11-21T06:59:09.996Z,74.00
2022-11-21T07:01:36.716Z,73.70
2022-11-21T07:04:03.562Z,74.00
2022-11-21T07:06:30.161Z,74.20
2022-11-21T07:11:43.987Z,73.40
2022-11-21T07:14:10.759Z,75.00
2022-11-21T07:16:37.527Z,74.60
2022-11-21T07:19:04.344Z,73.60
2022-11-21T07:21:31.093Z,74.90
2022-11-21T07:23:57.718Z,74.40
2022-11-21T07:26:24.321Z,74.30
2022-11-21T07:28:50.975Z,74.20
2022-11-21T07:31:17.697Z,72.90
2022-11-21T07:33:45.632Z,75.80
2022-11-21T07:36:12.926Z,73.20
2022-11-21T07:38:41.346Z,74.30
2022-11-21T07:41:08.683Z,73.90
2022-11-21T07:43:35.469Z,73.50
2022-11-21T07:46:02.225Z,74.40
2022-11-21T07:48:28.843Z,75.00
2022-11-21T07:50:55.488Z,73.70
2022-11-21T07:53:22.170Z,73.20
2022-11-21T07:55:48.855Z,74.30
2022-11-21T07:58:16.792Z,74.80
2022-11-21T08:00:43.756Z,74.60
2022-11-21T08:03:14.653Z,75.00
2022-11-21T08:05:42.767Z,74.90
2022-11-21T08:08:11.209Z,75.70
2022-11-21T08:10:39.199Z,74.70
2022-11-21T08:13:06.247Z,75.60
2022-11-21T08:15:33.172Z,78.00
2022-11-21T08:18:07.827Z,76.80
2022-11-21T08:20:34.585Z,77.60
2022-11-21T08:23:01.468Z,75.50
2022-11-21T08:25:30.865Z,74.50
2022-11-21T08:27:58.158Z,76.80
2022-11-21T08:30:24.959Z,76.00
2022-11-21T08:32:51.998Z,76.00
2022-11-21T08:35:19.105Z,74.30
2022-11-21T08:37:45.786Z,74.30
2022-11-21T08:40:12.410Z,75.40
2022-11-21T08:42:39.055Z,75.90
2022-11-21T08:45:06.611Z,75.20
2022-11-21T08:47:33.903Z,77.00
2022-11-21T08:50:04.311Z,76.60
2022-11-21T08:52:34.166Z,76.90
2022-11-21T08:55:00.776Z,76.60
2022-11-21T08:57:27.469Z,76.30
2022-11-21T08:59:54.090Z,77.70
2022-11-21T09:02:20.676Z,76.20
2022-11-21T09:04:47.296Z,76.20
2022-11-21T09:07:13.982Z,76.90
2022-11-21T09:09:40.747Z,77.70
2022-11-21T09:12:07.584Z,78.10
2022-11-21T09:14:52.682Z,77.80
2022-11-21T09:17:38.056Z,78.00
2022-11-21T09:20:05.568Z,78.20
2022-11-21T09:22:32.269Z,77.70
2022-11-21T09:24:59.248Z,79.20
2022-11-21T09:27:25.881Z,79.80
2022-11-21T09:29:54.473Z,80.70
2022-11-21T09:32:21.545Z,78.50
2022-11-21T09:34:50.714Z,80.30
2022-11-21T09:37:17.597Z,80.00
2022-11-21T09:39:44.264Z,78.20
2022-11-21T09:42:31.896Z,76.40
2022-11-21T09:45:03.782Z,77.10
2022-11-21T09:47:35.926Z,75.70
2022-11-21T09:50:18.414Z,75.40
2022-11-21T09:52:50.271Z,76.30
2022-11-21T09:55:27.682Z,74.80
2022-11-21T09:57:55.215Z,73.90
2022-11-21T10:00:24.046Z,72.40
2022-11-21T10:02:54.904Z,72.00
2022-11-21T10:05:36.719Z,75.20
2022-11-21T10:08:13.356Z,73.80
2022-11-21T10:11:16.137Z,72.50
2022-11-21T10:14:05.404Z,73.70
2022-11-21T10:16:49.820Z,71.50
2022-11-21T10:19:30.255Z,73.10
2022-11-21T10:22:20.167Z,74.90
2022-11-21T10:24:56.973Z,73.80
2022-11-21T10:27:29.604Z,74.00
2022-11-21T10:30:00.477Z,70.90
2022-11-21T10:32:38.469Z,71.80
2022-11-21T10:35:37.490Z,71.20
2022-11-21T10:38:22.506Z,70.80
2022-11-21T10:41:29.656Z,72.30
2022-11-21T10:44:35.633Z,70.60
2022-11-21T10:47:12.165Z,73.80
2022-11-21T10:49:39.259Z,68.20
2022-11-21T10:52:11.048Z,70.60
2022-11-21T10:55:02.970Z,69.20
2022-11-21T10:57:33.286Z,69.10
2022-11-21T11:00:22.430Z,67.70
2022-11-21T11:03:01.954Z,69.20
2022-11-21T11:05:29.675Z,64.30
2022-11-21T11:08:15.330Z,65.20
2022-11-21T11:10:44.226Z,65.60
2022-11-21T11:13:50.481Z,65.90
2022-11-21T11:16:21.182Z,64.50
2022-11-21T11:18:54.841Z,66.10
2022-11-21T11:21:39.373Z,66.90
2022-11-21T11:24:10.537Z,66.80
2022-11-21T11:26:49.698Z,65.50
2022-11-21T11:29:18.072Z,67.50
2022-11-21T11:31:52.419Z,68.60
2022-11-21T11:34:19.294Z,68.30
2022-11-21T11:37:13.035Z,68.00
2022-11-21T11:39:58.777Z,69.80
2022-11-21T11:42:53.252Z,70.20
2022-11-21T11:46:08.024Z,63.70
2022-11-21T11:48:56.652Z,67.10
2022-11-21T11:51:30.588Z,65.30
2022-11-21T11:54:01.513Z,58.10
2022-11-21T11:56:32.936Z,56.50
2022-11-21T11:59:12.058Z,58.40
2022-11-21T12:01:43.799Z,53.90
2022-11-21T12:04:13.995Z,55.40
2022-11-21T12:08:20.081Z,52.20
2022-11-21T12:10:06.615Z,48.10
2022-11-21T12:12:39.151Z,51.80
2022-11-21T12:15:47.149Z,45.30
2022-11-21T12:18:20.656Z,36.20
2022-11-21T12:21:08.246Z,44.00
2022-11-21T12:23:54.640Z,43.80
2022-11-21T12:26:21.233Z,39.90
2022-11-21T12:29:02.294Z,34.40
2022-11-21T12:31:58.559Z,35.20
2022-11-21T12:34:38.627Z,26.80
2022-11-21T12:37:23.186Z,28.50
2022-11-21T12:40:01.852Z,28.60
2022-11-21T12:42:50.280Z,29.70
2022-11-21T12:45:32.276Z,24.00
2022-11-21T12:48:48.998Z,28.00
2022-11-21T12:52:00.042Z,33.70
2022-11-21T12:54:50.641Z,40.10
2022-11-21T12:57:21.926Z,36.80
2022-11-21T13:00:19.190Z,43.70
2022-11-21T13:03:10.187Z,37.00
2022-11-21T13:05:40.682Z,37.60
2022-11-21T13:08:24.711Z,34.80
2022-11-21T13:11:17.658Z,37.70
2022-11-21T13:13:47.184Z,38.20
2022-11-21T13:16:39.660Z,36.40
2022-11-21T13:19:18.719Z,37.30
2022-11-21T13:21:47.924Z,33.20
2022-11-21T13:24:49.733Z,26.40
2022-11-21T13:27:34.844Z,22.60
2022-11-21T13:30:07.909Z,24.30
2022-11-21T13:32:47.736Z,18.50
2022-11-21T13:35:23.792Z,19.60
2022-11-21T13:37:50.450Z,23.40
2022-11-21T13:40:32.155Z,24.00
2022-11-21T13:43:34.316Z,24.80
2022-11-21T13:46:01.526Z,16.00
2022-11-21T13:48:37.092Z,12.90
2022-11-21T13:51:52.831Z,19.10
2022-11-21T13:54:35.280Z,7.50
2022-11-21T13:57:20.059Z,9.60
2022-11-21T14:00:05.587Z,11.10
2022-11-21T14:02:54.247Z,17.60
2022-11-21T14:05:42.609Z,7.90
2022-11-21T14:08:21.299Z,11.70
2022-11-21T14:10:50.533Z,16.30
2022-11-21T14:13:33.036Z,16.80
2022-11-21T14:16:36.871Z,13.70
2022-11-21T14:19:03.990Z,14.40
2022-11-21T14:21:32.686Z,17.10
2022-11-21T14:24:04.495Z,12.20
2022-11-21T14:26:47.261Z,14.10
2022-11-21T14:29:26.883Z,13.40
2022-11-21T14:31:54.251Z,8.30
2022-11-21T14:34:26.648Z,10.30
2022-11-21T14:36:53.775Z,10.60
2022-11-21T14:39:37.205Z,17.30
2022-11-21T14:42:10.614Z,19.20
2022-11-21T14:44:37.273Z,11.50
2022-11-21T14:47:23.560Z,14.90
2022-11-21T14:49:54.565Z,5.50
2022-11-21T14:52:30.450Z,14.40
2022-11-21T14:57:52.471Z,17.60
2022-11-21T15:03:21.443Z,21.00
2022-11-21T15:11:47.480Z,24.30
2022-11-21T15:14:23.017Z,23.70
2022-11-21T15:16:52.247Z,26.00
2022-11-21T15:19:27.490Z,27.50
2022-11-21T15:21:57.086Z,28.10
2022-11-21T15:24:43.719Z,28.90
2022-11-21T15:27:28.785Z,28.60
2022-11-21T15:30:10.452Z,29.00
2022-11-21T15:33:09.887Z,29.60
2022-11-21T15:35:56.471Z,30.60
2022-11-21T15:38:40.445Z,31.10
2022-11-21T15:41:10.130Z,30.60
2022-11-21T15:43:48.618Z,32.10
2022-11-21T15:46:50.929Z,32.70
2022-11-21T15:49:33.820Z,33.70
2022-11-21T15:52:09.500Z,35.80
2022-11-21T15:54:48.209Z,35.80
2022-11-21T15:57:17.136Z,37.50
2022-11-21T15:59:44.825Z,37.30
2022-11-21T16:02:13.836Z,38.30
2022-11-21T16:04:41.777Z,38.90
2022-11-21T16:07:08.621Z,40.20
2022-11-21T16:09:36.081Z,39.70
2022-11-21T16:12:02.858Z,38.90
2022-11-21T16:14:29.574Z,39.90
2022-11-21T16:16:56.720Z,40.70
2022-11-21T16:19:23.436Z,40.00
2022-11-21T16:21:50.136Z,40.60
2022-11-21T16:24:16.815Z,40.90
2022-11-21T16:26:43.575Z,41.80
2022-11-21T16:29:10.985Z,41.10
2022-11-21T16:31:37.637Z,41.00
2022-11-21T16:34:04.548Z,41.30
2022-11-21T16:36:32.131Z,40.90
2022-11-21T16:39:07.648Z,40.60
2022-11-21T16:41:35.018Z,40.90
2022-11-21T16:44:01.634Z,41.10
2022-11-21T16:46:28.280Z,41.20
2022-11-21T16:49:02.201Z,40.20
2022-11-21T16:51:29.495Z,39.50
2022-11-21T16:54:03.068Z,40.10
2022-11-21T16:56:33.888Z,40.10
2022-11-21T16:59:00.516Z,40.20
2022-11-21T17:01:28.440Z,40.90
2022-11-21T17:03:55.286Z,41.20
2022-11-21T17:06:24.603Z,40.90
2022-11-21T17:08:51.358Z,39.20
2022-11-21T17:11:30.454Z,39.30
2022-11-21T17:14:02.633Z,40.40
2022-11-21T17:16:30.140Z,39.60
2022-11-21T17:18:59.118Z,39.80
2022-11-21T17:21:26.589Z,40.00
2022-11-21T17:23:53.225Z,41.70
2022-11-21T17:26:21.744Z,42.80
2022-11-21T17:28:59.504Z,42.00
2022-11-21T17:31:26.987Z,43.00
2022-11-21T17:33:56.278Z,43.50
2022-11-21T17:36:24.184Z,43.10
2022-11-21T17:38:52.128Z,44.60
2022-11-21T17:41:21.188Z,43.40
2022-11-21T17:43:48.379Z,42.90
2022-11-21T17:46:17.391Z,43.60
2022-11-21T17:48:48.505Z,45.20
2022-11-21T17:51:21.383Z,45.40
2022-11-21T17:53:49.861Z,45.70
2022-11-21T17:56:18.729Z,46.60
2022-11-21T17:58:47.113Z,47.60
2022-11-21T18:01:19.040Z,47.00
2022-11-21T18:03:55.471Z,48.70
2022-11-21T18:06:22.109Z,47.90
2022-11-21T18:08:49.141Z,48.80
2022-11-21T18:11:19.043Z,47.00
2022-11-21T18:13:45.957Z,48.60
2022-11-21T18:16:14.821Z,49.50
2022-11-21T18:18:42.161Z,50.20
2022-11-21T18:21:16.876Z,50.60
2022-11-21T18:23:44.352Z,50.80
2022-11-21T18:26:22.711Z,51.20
2022-11-21T18:29:01.795Z,51.20
2022-11-21T18:31:37.444Z,51.10
2022-11-21T18:34:05.342Z,51.60
2022-11-21T18:36:32.406Z,53.10
2022-11-21T18:39:05.885Z,52.30
2022-11-21T18:41:36.688Z,53.10
2022-11-21T18:44:05.302Z,53.40
2022-11-21T18:46:34.262Z,53.40
2022-11-21T18:49:04.563Z,55.20
2022-11-21T18:51:33.334Z,54.40
2022-11-21T18:54:07.095Z,55.00
2022-11-21T18:56:34.556Z,55.30
2022-11-21T18:59:03.187Z,56.20
2022-11-21T19:01:30.468Z,56.20
2022-11-21T19:03:57.271Z,56.50
2022-11-21T19:06:25.928Z,56.60
2022-11-21T19:08:54.402Z,56.90
2022-11-21T19:11:24.242Z,56.20
2022-11-21T19:13:52.881Z,56.80
2022-11-21T19:16:21.292Z,57.50
2022-11-21T19:19:05.335Z,58.00
2022-11-21T19:21:39.292Z,58.70
2022-11-21T19:24:07.558Z,59.00
2022-11-21T19:26:34.178Z,58.70
2022-11-21T19:29:00.960Z,60.50
2022-11-21T19:31:27.843Z,59.20
2022-11-21T19:33:54.503Z,59.00
2022-11-21T19:36:22.875Z,57.50
2022-11-21T19:38:51.094Z,56.00
2022-11-21T19:41:19.936Z,56.60
2022-11-21T19:43:51.627Z,56.40
2022-11-21T19:46:23.464Z,56.70
2022-11-21T19:48:51.647Z,56.60
2022-11-21T19:51:19.158Z,56.10
2022-11-21T19:53:46.144Z,56.50
2022-11-21T19:56:18.934Z,55.30
2022-11-21T19:58:46.435Z,56.40
2022-11-21T20:01:21.217Z,54.40
2022-11-21T20:03:50.376Z,54.80
2022-11-21T20:06:20.164Z,56.30
2022-11-21T20:08:51.933Z,55.70
2022-11-21T20:11:18.808Z,56.00
2022-11-21T20:13:45.782Z,55.60
2022-11-21T20:16:23.960Z,55.90
2022-11-21T20:18:51.557Z,55.40
2022-11-21T20:21:19.265Z,56.20
2022-11-21T20:23:47.118Z,57.00
2022-11-21T20:26:15.375Z,56.00
2022-11-21T20:28:42.039Z,58.10
2022-11-21T20:31:20.156Z,55.90
2022-11-21T20:33:48.906Z,55.70
2022-11-21T20:36:19.257Z,56.10
2022-11-21T20:38:54.002Z,57.30
2022-11-21T20:41:21.959Z,58.10
2022-11-21T20:46:35.471Z,56.80
2022-11-21T20:49:02.257Z,59.40
2022-11-21T20:54:15.522Z,60.20
2022-11-21T20:56:44.407Z,60.40
2022-11-21T20:59:11.691Z,61.60
2022-11-21T21:01:41.130Z,61.70
2022-11-21T21:04:09.296Z,62.10
2022-11-21T21:06:37.512Z,62.30
2022-11-21T21:09:04.674Z,62.40
2022-11-21T21:11:50.806Z,62.10
2022-11-21T21:14:17.986Z,64.30
2022-11-21T21:16:47.705Z,63.90
2022-11-21T21:19:14.487Z,64.20
2022-11-21T21:21:41.642Z,64.50
2022-11-21T21:24:10.277Z,65.20
2022-11-21T21:26:42.670Z,65.20
2022-11-21T21:29:11.995Z,66.50
2022-11-21T21:31:39.163Z,67.70
2022-11-21T21:34:05.798Z,67.20
2022-11-21T21:36:32.485Z,65.20
2022-11-21T21:39:00.165Z,65.80
2022-11-21T21:41:28.865Z,67.40
2022-11-21T21:43:57.015Z,66.20
2022-11-21T21:46:25.913Z,68.00
2022-11-21T21:48:55.813Z,67.20
2022-11-21T21:51:24.978Z,68.10
2022-11-21T21:53:52.913Z,69.10
2022-11-21T21:56:21.063Z,68.00
2022-11-21T21:58:48.938Z,67.60
2022-11-21T22:01:20.763Z,68.60
2022-11-21T22:03:48.501Z,69.10
2022-11-21T22:06:17.783Z,68.40
2022-11-21T22:08:45.779Z,69.30
2022-11-21T22:11:20.215Z,67.30
2022-11-21T22:13:50.743Z,67.60
2022-11-21T22:16:17.651Z,66.10
2022-11-21T22:18:48.835Z,67.50
2022-11-21T22:21:17.482Z,66.80
2022-11-21T22:24:03.019Z,68.00
2022-11-21T22:26:31.827Z,68.50
2022-11-21T22:28:58.473Z,69.60
2022-11-21T22:31:25.103Z,69.00
2022-11-21T22:33:51.776Z,67.60
2022-11-21T22:36:18.969Z,67.70
2022-11-21T22:38:46.270Z,68.80
2022-11-21T22:41:18.250Z,69.00
2022-11-21T22:43:48.955Z,68.70
2022-11-21T22:46:15.577Z,67.60
2022-11-21T22:48:42.314Z,67.60
2022-11-21T22:51:11.718Z,67.80
2022-11-21T22:53:40.319Z,67.70
2022-11-21T22:56:13.189Z,68.10
2022-11-21T22:58:40.737Z,68.90
2022-11-21T23:01:12.120Z,69.20
2022-11-21T23:03:39.229Z,68.90
2022-11-21T23:06:11.114Z,64.50
2022-11-21T23:08:39.032Z,67.10
2022-11-21T23:11:21.503Z,68.40
2022-11-21T23:13:48.845Z,66.40
2022-11-21T23:16:16.526Z,66.60
2022-11-21T23:18:43.603Z,68.80
2022-11-21T23:21:10.901Z,69.30
2022-11-21T23:23:37.577Z,70.40
2022-11-21T23:26:05.095Z,68.40
2022-11-21T23:28:32.285Z,69.90
2022-11-21T23:30:59.016Z,70.80
2022-11-21T23:33:25.679Z,68.50
2022-11-21T23:35:52.404Z,68.80
2022-11-21T23:38:19.558Z,70.50
2022-11-21T23:40:47.064Z,67.90
2022-11-21T23:43:14.703Z,70.70
2022-11-21T23:45:41.693Z,71.00
2022-11-21T23:48:08.371Z,71.40
2022-11-21T23:50:35.100Z,72.00
2022-11-21T23:53:01.932Z,72.20
2022-11-21T23:55:28.661Z,71.80
2022-11-21T23:57:55.556Z,71.20
